Česky Dansk Deutsch English Español Suomi Français Magyar Italiano Nederlands norsk Polski Português svenska Türkçe

 

Het Weer

Soervaag / Vagar (Dänemark)

09:20, 14 August 2016 (GMT)

NWNNE
WE
SWSSE
Home            
Soervaag / Vagar Scatsa / Shetland Island Unst Island Sumburgh Cape Kirkwall Airport Stornoway Wick Akurnes Egilsstadir Gullfax Platform Tain Range Benbecula Lossiemouth Kinloss Inverness / Dalcross Skjaldthingsstadir Frigg Heidrun Aberdeen / Dyce Tiree Raufarhofn Floro Perth / Scone

Om een weerknop op uw website of weblog te plaatsen, copieer onderstaande code en plak die in uw pagina. In het eerste vakje staat HTML-code, in het tweede vakje UBB-code.


Add to Google

Details

Wind speed:1 bf, 1 kn, 0.5 m/s, 1.2 miles/h, 1.9 km/h
Wind direction:Variable
Clouds:Durchbrochene Bewölkung at 600 ft, 183 m
Geschlossene Wolkendecke at 2100 ft, 640 m
Temperatur:11°C, 52°F
Taupunkt:10°C, 50°F
Luftdruck:1018 hPa, 763.6 mmHg, 30.06 inHg, 1.005 atm
Relative Luftfeuchtigkeit:93.5 %
METAR:EKVG 140920Z AUTO VRB01KT 9999NDV BKN006 OVC021 11/10 Q1018

Snelkoppelingen

Actuele weersinformatie van de hele wereld. Voeg locaties toe met het plus (+) symbool. Deze snelkoppelingen kunnen worden toegevoegd aan Google.

Lid van de Technetium groep

website free tracking
StatCounter NetStat W3C Validator

02-10-2022 12:10:31
astro.technetium.be money.technetium.be phote.technetium.be tafeltennistafel.technetium.be www.ligfiets.net